エルモシージョ の空港の天気 - METARとTAF

ヘネラル・イグナシオ・ペスケイラ・ガルシア国際空港 ( MMHO / HMO ) - メキシコ ソノラ州エルモシージョ
飛行場実況気象(Metar)
観測時間12/01 16:42 MST (12/01 23:42 UTC)
風向・風速西 2m/s
視程10km以上
天気現象
なし
気温28℃
湿度6%
気圧1014hPa
METARMMHO 012342Z 27003KT 10SM SKC 28/M12 A2993 RMK SLP/// 57011 963 HZY
過去の天気等 Google飛行場航空写真 Wunderground天気予報

過去48時間のMETAR

飛行場予報(TAF)
発表時間: 12/01 09:17 MST (12/01 16:17 UTC)
予報対象時間: 1日11時 MST ~ 2日11時 MST
風向・風速西 4m/s
視程10km以上
なし
1日21時 MST から
風向・風速静穏
視程10km以上
なし
2日9時 MST から
風向・風速南南西 3m/s
視程10km以上
なし
TAF MMHO 011617Z 0118/0218 28008KT P6SM SKC
FM020400 00000KT P6SM SKC
FM021600 20006KT P6SM SKC